Moosup, Connecticut
Current Conditions -  °F | °C
As of 10:02 PM on Wednesday 22 Oct 2014 (Local Time) from KIJD Reporting Station
Light Rain Light Rain  
Wind Chill: 51°   Ceiling: 1900
Heat Index: 51°   Visibility: 9mi
Dew Point: 47°   Wind: 17mph
Humidity: 86%   Direction: 30°NNE
Pressure: 29.75"   Gusts: 33mph
Location:  41.72°N, 71.87°W
Report Text: KIJD 230202Z AUTO 03015G29KT 9SM -RA SCT015 BKN019 OVC025 11/08 A2975 RMK AO2 PK WND 04029/0155 LTG DSNT ALQDS P0001 T01060083
Loading
Personal Weather Stations






























Interactive Weather Map
Tropical Storm Tracking
New forecast layout! Learn more

10-Day Weather Forecast

Advertisements
Track Severe Weather on mobile